Time;durP1;ratioP1;P1;durP2;ratioP2;P2;SDS_P1;SDS_P2;PMS_P1;PMS_P2;Temp;Humidity;BMP_temperature;BMP_pressure;BME280_temperature;BME280_humidity;BME280_pressure;Samples;Min_cycle;Max_cycle;Signal;HPM_P1;HPM_P2
2022/11/06 00:00:55;;;;;;;26.00;16.77;;;10.70;99.90;;;;;;5007202;28;20558;-59
2022/11/06 00:03:21;;;;;;;14.97;13.57;;;10.20;99.90;;;;;;5011393;28;20321;-53
2022/11/06 00:08:35;;;;;;;15.80;14.20;;;10.40;99.90;;;;;;5012600;28;20277;-58
2022/11/06 00:11:07;;;;;;;14.90;13.40;;;10.30;99.90;;;;;;5008902;28;20185;-57
2022/11/06 00:13:32;;;;;;;14.90;13.20;;;10.20;99.90;;;;;;5008808;28;20180;-56
2022/11/06 00:16:02;;;;;;;14.77;13.27;;;10.00;99.90;;;;;;5008259;28;20200;-59
2022/11/06 00:18:28;;;;;;;14.63;13.23;;;10.00;99.90;;;;;;5072642;28;20185;-56
2022/11/06 00:20:53;;;;;;;24.53;15.47;;;10.20;99.90;;;;;;5084398;28;20172;-57
2022/11/06 00:23:19;;;;;;;14.63;13.23;;;10.30;99.90;;;;;;5110943;28;20200;-58
2022/11/06 00:25:44;;;;;;;14.37;13.00;;;10.40;99.90;;;;;;5111088;28;20688;-52
2022/11/06 00:28:10;;;;;;;19.90;15.07;;;10.50;99.90;;;;;;5111577;28;20168;-57
2022/11/06 00:30:36;;;;;;;15.00;13.40;;;10.50;99.90;;;;;;5111302;28;20176;-56
2022/11/06 00:33:01;;;;;;;16.60;15.00;;;10.50;99.90;;;;;;5086526;28;20644;-57
2022/11/06 00:35:27;;;;;;;16.17;14.57;;;10.60;99.90;;;;;;5095161;28;20239;-55
2022/11/06 00:37:53;;;;;;;16.23;14.53;;;10.70;99.90;;;;;;5097089;28;20189;-58
2022/11/06 00:40:19;;;;;;;15.00;13.50;;;10.70;99.90;;;;;;5094626;28;20186;-55
2022/11/06 00:42:44;;;;;;;13.00;11.80;;;11.00;99.90;;;;;;5083049;28;20667;-56
2022/11/06 00:45:10;;;;;;;13.20;11.90;;;10.80;99.90;;;;;;5075664;28;20185;-57
2022/11/06 00:47:35;;;;;;;14.13;12.57;;;10.80;99.90;;;;;;5082271;28;20182;-55
2022/11/06 00:50:01;;;;;;;15.20;13.53;;;10.90;99.90;;;;;;5110503;28;20169;-55
2022/11/06 00:52:28;;;;;;;15.53;13.93;;;11.20;99.90;;;;;;5112629;28;20194;-53
2022/11/06 00:54:54;;;;;;;13.43;12.13;;;11.10;99.90;;;;;;5094667;28;20170;-52
2022/11/06 00:57:19;;;;;;;15.63;14.03;;;10.80;99.90;;;;;;5094733;28;20628;-54
2022/11/06 00:59:45;;;;;;;15.37;13.80;;;10.80;99.90;;;;;;5094780;28;20170;-56
2022/11/06 01:02:11;;;;;;;16.93;15.13;;;10.70;99.90;;;;;;5094426;28;20238;-57
2022/11/06 01:04:36;;;;;;;17.17;15.00;;;10.80;99.90;;;;;;5096179;28;20234;-57
2022/11/06 01:07:02;;;;;;;17.33;15.53;;;10.80;99.90;;;;;;5115123;28;20545;-55
2022/11/06 01:09:27;;;;;;;16.83;15.03;;;11.00;99.90;;;;;;5114879;28;20166;-56
2022/11/06 01:11:55;;;;;;;16.83;15.10;;;10.80;99.90;;;;;;5115200;28;20177;-55
2022/11/06 01:14:22;;;;;;;14.33;12.83;;;11.20;99.90;;;;;;5114366;28;20176;-57
2022/11/06 01:16:48;;;;;;;15.63;12.93;;;10.80;99.90;;;;;;5114001;28;20188;-58
2022/11/06 01:19:15;;;;;;;14.87;13.47;;;10.80;99.90;;;;;;5114676;28;20546;-54
2022/11/06 01:21:43;;;;;;;15.23;13.73;;;10.80;99.90;;;;;;5114183;28;20193;-58
2022/11/06 01:24:17;;;;;;;15.57;14.07;;;10.80;99.90;;;;;;5114417;28;20682;-55
2022/11/06 01:26:43;;;;;;;15.47;13.87;;;11.40;99.90;;;;;;5114446;28;20189;-57
2022/11/06 01:29:12;;;;;;;16.50;14.80;;;10.70;99.90;;;;;;5114780;28;20168;-57
2022/11/06 01:31:37;;;;;;;17.13;15.43;;;11.20;99.90;;;;;;5113741;28;20192;-59
2022/11/06 01:34:04;;;;;;;16.27;14.57;;;10.70;99.90;;;;;;5114196;28;20204;-56
2022/11/06 01:36:30;;;;;;;15.73;14.03;;;10.70;99.90;;;;;;5114263;28;20211;-59
2022/11/06 01:38:58;;;;;;;15.77;14.17;;;10.70;99.90;;;;;;5114446;28;20176;-59
2022/11/06 01:41:28;;;;;;;16.40;14.67;;;10.80;99.90;;;;;;5109813;28;20187;-58
2022/11/06 01:44:16;;;;;;;15.90;14.30;;;10.70;99.90;;;;;;5093396;28;20177;-55
2022/11/06 01:46:42;;;;;;;17.20;15.40;;;10.70;99.90;;;;;;4990889;28;20237;-58
2022/11/06 01:49:14;;;;;;;16.97;15.27;;;10.80;99.90;;;;;;4991948;28;20181;-55
2022/11/06 01:51:46;;;;;;;18.83;15.43;;;10.70;99.90;;;;;;4990643;28;20192;-58
2022/11/06 01:54:12;;;;;;;15.73;14.23;;;11.00;99.90;;;;;;4991590;28;20205;-58
2022/11/06 01:56:38;;;;;;;17.70;14.90;;;11.20;99.90;;;;;;4989383;28;20237;-56
2022/11/06 01:59:06;;;;;;;16.20;13.63;;;10.30;99.90;;;;;;4983315;28;20212;-55
2022/11/06 02:01:32;;;;;;;16.37;14.63;;;10.20;99.90;;;;;;4983760;28;20177;-58
2022/11/06 02:04:06;;;;;;;15.30;13.80;;;10.00;99.90;;;;;;4985439;28;20185;-59
2022/11/06 02:06:32;;;;;;;14.33;12.80;;;10.10;99.90;;;;;;4987732;28;20238;-59
2022/11/06 02:08:58;;;;;;;15.27;13.67;;;10.10;99.90;;;;;;4987528;28;20582;-56
2022/11/06 02:11:24;;;;;;;15.63;14.03;;;10.00;99.90;;;;;;4983360;28;20176;-57
2022/11/06 02:14:03;;;;;;;15.43;13.93;;;10.00;99.90;;;;;;5010085;28;20181;-56
2022/11/06 02:16:38;;;;;;;15.03;13.50;;;10.60;99.90;;;;;;4976762;28;20205;-58
2022/11/06 02:19:24;;;;;;;15.77;14.17;;;10.30;99.90;;;;;;4980741;28;20170;-57
2022/11/06 02:21:59;;;;;;;16.63;14.83;;;10.50;99.90;;;;;;4937288;28;20647;-57
2022/11/06 02:24:37;;;;;;;18.67;15.50;;;10.50;99.90;;;;;;4978017;28;20259;-55
2022/11/06 02:27:11;;;;;;;16.10;14.50;;;10.20;99.90;;;;;;4989149;28;20209;-56
2022/11/06 02:29:57;;;;;;;15.33;13.83;;;10.00;99.90;;;;;;4990236;28;20178;-56
2022/11/06 02:32:34;;;;;;;15.70;14.10;;;10.20;99.90;;;;;;4990510;28;20204;-58
2022/11/06 02:35:04;;;;;;;17.87;16.07;;;10.20;99.90;;;;;;4990321;28;20558;-58
2022/11/06 02:37:35;;;;;;;17.77;16.00;;;10.00;99.90;;;;;;4990017;28;20212;-59
2022/11/06 02:40:05;;;;;;;16.53;14.93;;;10.30;99.90;;;;;;4990698;28;20638;-58
2022/11/06 02:42:35;;;;;;;18.73;16.07;;;10.40;99.90;;;;;;4990568;28;20201;-59
2022/11/06 02:45:02;;;;;;;17.47;15.77;;;10.50;99.90;;;;;;4989845;28;20185;-58
2022/11/06 02:47:31;;;;;;;17.30;15.50;;;10.50;99.90;;;;;;4989512;28;20220;-55
2022/11/06 02:50:05;;;;;;;16.93;14.80;;;10.40;99.90;;;;;;4989930;28;20181;-57
2022/11/06 02:52:44;;;;;;;17.30;15.50;;;10.40;99.90;;;;;;4990634;28;20189;-54
2022/11/06 02:55:20;;;;;;;16.50;14.80;;;10.30;99.90;;;;;;4989562;28;20196;-50
2022/11/06 02:57:51;;;;;;;17.00;15.17;;;10.40;99.90;;;;;;4988691;28;20189;-54
2022/11/06 03:00:17;;;;;;;17.50;15.67;;;11.00;99.90;;;;;;5070728;28;20647;-53
2022/11/06 03:03:04;;;;;;;17.80;15.40;;;10.60;99.90;;;;;;5077677;28;20220;-54
2022/11/06 03:05:35;;;;;;;18.53;16.00;;;10.70;99.90;;;;;;5085209;28;20651;-54
2022/11/06 03:08:17;;;;;;;17.83;15.73;;;10.70;99.90;;;;;;5078477;28;20175;-57
2022/11/06 03:11:10;;;;;;;17.33;14.90;;;10.80;99.90;;;;;;5074200;28;20184;-53
2022/11/06 03:13:49;;;;;;;17.10;15.30;;;10.70;99.90;;;;;;5090783;28;20803;-56
2022/11/06 03:16:48;;;;;;;17.07;15.27;;;10.70;99.90;;;;;;5112577;28;20196;-56
2022/11/06 03:19:35;;;;;;;17.60;14.93;;;10.80;99.90;;;;;;5071488;28;20284;-57
2022/11/06 03:22:12;;;;;;;18.10;15.90;;;10.90;99.90;;;;;;5085770;28;20186;-55
2022/11/06 03:24:53;;;;;;;16.60;14.90;;;10.90;99.90;;;;;;5090045;28;20200;-55
2022/11/06 03:27:24;;;;;;;16.47;14.77;;;10.90;99.90;;;;;;5088315;28;20193;-54
2022/11/06 03:30:00;;;;;;;16.33;14.63;;;10.80;99.90;;;;;;5087150;28;20182;-55
2022/11/06 03:32:28;;;;;;;16.67;14.00;;;10.80;99.90;;;;;;5082046;28;20177;-58
2022/11/06 03:35:05;;;;;;;17.23;15.47;;;10.80;99.90;;;;;;5082146;28;20202;-56
2022/11/06 03:37:37;;;;;;;15.80;14.20;;;10.90;99.90;;;;;;5078948;28;20226;-55
2022/11/06 03:40:08;;;;;;;16.80;15.10;;;10.80;99.90;;;;;;5091920;28;20186;-52
2022/11/06 03:42:37;;;;;;;16.10;14.40;;;10.90;99.90;;;;;;5085443;28;20222;-56
2022/11/06 03:45:08;;;;;;;15.93;14.23;;;11.00;99.90;;;;;;5076577;28;20197;-55
2022/11/06 03:47:43;;;;;;;16.67;14.90;;;10.90;99.90;;;;;;5080349;28;20177;-56
2022/11/06 03:50:23;;;;;;;15.90;14.23;;;10.90;99.90;;;;;;5074570;28;20173;-55
2022/11/06 03:53:04;;;;;;;14.70;13.17;;;10.80;99.90;;;;;;5072237;28;20651;-53
2022/11/06 03:55:41;;;;;;;15.23;13.73;;;10.60;99.90;;;;;;5071165;28;20331;-56
2022/11/06 03:58:12;;;;;;;16.60;13.33;;;10.60;99.90;;;;;;5072507;28;20647;-58
2022/11/06 04:00:40;;;;;;;14.90;13.40;;;10.60;99.90;;;;;;5081111;28;20171;-53
2022/11/06 04:03:13;;;;;;;15.60;14.00;;;10.50;99.90;;;;;;5081515;28;20200;-60
2022/11/06 04:05:44;;;;;;;14.73;13.23;;;10.80;99.90;;;;;;5077454;28;20190;-51
2022/11/06 04:14:03;;;;;;;14.63;13.13;;;11.00;99.90;;;;;;5073291;28;20598;-57
2022/11/06 04:16:38;;;;;;;14.70;13.27;;;10.60;99.90;;;;;;5073814;28;20571;-53
2022/11/06 04:19:18;;;;;;;15.40;13.80;;;10.70;99.90;;;;;;5085903;28;20245;-57
2022/11/06 04:22:17;;;;;;;15.13;13.43;;;10.70;99.90;;;;;;5070761;28;20206;-54
2022/11/06 04:29:24;;;;;;;13.97;12.57;;;10.50;99.90;;;;;;4984370;28;20231;-53
2022/11/06 04:32:14;;;;;;;14.00;12.60;;;10.40;99.90;;;;;;4913248;29;20195;-56
2022/11/06 04:34:54;;;;;;;15.93;14.33;;;10.50;99.90;;;;;;4925013;29;20328;-56
2022/11/06 04:37:38;;;;;;;15.70;14.00;;;10.50;99.90;;;;;;4929544;29;20239;-57
2022/11/06 04:40:24;;;;;;;16.57;14.80;;;10.40;99.90;;;;;;4931584;29;20215;-58
2022/11/06 04:42:57;;;;;;;16.93;15.13;;;10.50;99.90;;;;;;4927904;29;20314;-55
2022/11/06 04:45:30;;;;;;;15.27;13.70;;;10.60;99.90;;;;;;4927769;29;20215;-56
2022/11/06 04:47:58;;;;;;;14.97;13.40;;;10.60;99.90;;;;;;4923318;29;20168;-53
2022/11/06 04:50:27;;;;;;;16.30;14.17;;;11.00;99.90;;;;;;4924714;29;20187;-51
2022/11/06 04:52:54;;;;;;;15.27;13.67;;;10.70;99.90;;;;;;4931345;29;20601;-55
2022/11/06 04:55:28;;;;;;;15.30;13.70;;;10.80;99.90;;;;;;4931249;29;20592;-57
2022/11/06 04:57:53;;;;;;;15.03;13.43;;;10.80;99.90;;;;;;4931107;29;20194;-57
2022/11/06 05:00:19;;;;;;;15.47;13.87;;;10.80;99.90;;;;;;4931029;29;20195;-55
2022/11/06 05:02:45;;;;;;;15.20;13.70;;;10.70;99.90;;;;;;4947139;28;20217;-57
2022/11/06 05:05:10;;;;;;;15.40;13.80;;;10.70;99.90;;;;;;5009279;28;20547;-57
2022/11/06 05:07:36;;;;;;;16.03;13.90;;;10.60;99.90;;;;;;5111266;28;20707;-56
2022/11/06 05:10:01;;;;;;;15.40;13.80;;;10.60;99.90;;;;;;5110884;28;20482;-55
2022/11/06 05:12:27;;;;;;;13.97;12.57;;;10.60;99.90;;;;;;5100786;28;20217;-55
2022/11/06 05:14:52;;;;;;;15.30;13.70;;;10.60;99.90;;;;;;5086422;28;20696;-54
2022/11/06 05:17:18;;;;;;;14.23;12.83;;;10.70;99.90;;;;;;5090287;28;20217;-56
2022/11/06 05:19:43;;;;;;;14.03;12.63;;;10.90;99.90;;;;;;5089174;28;20216;-56
2022/11/06 05:24:53;;;;;;;15.23;13.73;;;11.10;99.90;;;;;;5092379;28;20204;-55
2022/11/06 05:27:19;;;;;;;15.17;13.67;;;10.80;99.90;;;;;;5093308;28;20678;-56
2022/11/06 05:29:45;;;;;;;18.73;15.57;;;10.80;99.90;;;;;;5093470;28;20174;-56
2022/11/06 05:32:11;;;;;;;16.10;14.50;;;10.60;99.90;;;;;;5093258;28;20206;-55
2022/11/06 05:34:36;;;;;;;14.67;13.13;;;10.50;99.90;;;;;;5093902;28;20198;-54
2022/11/06 05:37:02;;;;;;;14.30;12.80;;;10.60;99.90;;;;;;5094035;28;20208;-56
2022/11/06 05:39:27;;;;;;;14.93;13.43;;;10.60;99.90;;;;;;5094188;28;20283;-57
2022/11/06 05:41:53;;;;;;;15.07;13.57;;;10.80;99.90;;;;;;5084476;28;20289;-53
2022/11/06 05:44:19;;;;;;;15.27;13.67;;;10.80;99.90;;;;;;5074461;28;20269;-51
2022/11/06 05:46:44;;;;;;;14.30;12.80;;;10.60;99.90;;;;;;5082157;28;20201;-51
2022/11/06 05:49:10;;;;;;;16.67;14.57;;;10.60;99.90;;;;;;5084597;28;20186;-56
2022/11/06 05:51:35;;;;;;;15.33;13.47;;;10.60;99.90;;;;;;5086696;28;20635;-57
2022/11/06 05:54:01;;;;;;;15.07;13.57;;;10.60;99.90;;;;;;5073130;28;20174;-57
2022/11/06 05:56:26;;;;;;;17.33;15.40;;;10.70;99.90;;;;;;5078048;28;20259;-58
2022/11/06 05:58:52;;;;;;;17.60;15.30;;;11.10;99.90;;;;;;5103066;28;20633;-54
2022/11/06 06:01:18;;;;;;;21.17;16.70;;;10.80;99.90;;;;;;5112312;28;20161;-54
2022/11/06 06:03:43;;;;;;;16.40;14.67;;;10.60;99.90;;;;;;5092887;28;20567;-58
2022/11/06 06:06:09;;;;;;;18.47;15.87;;;10.60;99.90;;;;;;5093257;28;20190;-55
2022/11/06 06:08:34;;;;;;;16.00;14.17;;;10.50;99.90;;;;;;5087311;28;20221;-57
2022/11/06 06:11:06;;;;;;;16.27;14.33;;;10.30;99.90;;;;;;5075171;28;20558;-52
2022/11/06 06:13:31;;;;;;;15.90;14.30;;;10.30;99.90;;;;;;5073074;28;20167;-57
2022/11/06 06:16:00;;;;;;;16.47;14.70;;;10.60;99.90;;;;;;5078466;28;20242;-56
2022/11/06 06:18:26;;;;;;;15.60;14.07;;;10.30;99.90;;;;;;5079847;28;20186;-54
2022/11/06 06:20:51;;;;;;;15.70;14.10;;;10.40;99.90;;;;;;5074082;28;20252;-54
2022/11/06 06:23:17;;;;;;;15.43;13.57;;;10.40;99.90;;;;;;5084530;28;20193;-57
2022/11/06 06:25:42;;;;;;;15.20;13.60;;;10.30;99.90;;;;;;5085585;28;20190;-59
2022/11/06 06:28:08;;;;;;;16.37;14.73;;;10.40;99.90;;;;;;5072819;28;20166;-56
2022/11/06 06:30:34;;;;;;;15.37;13.77;;;10.40;99.90;;;;;;5054492;28;20628;-57
2022/11/06 06:33:04;;;;;;;14.67;13.23;;;10.60;99.90;;;;;;5071487;28;20173;-55
2022/11/06 06:35:30;;;;;;;15.37;13.80;;;10.40;99.90;;;;;;5072747;28;20187;-57
2022/11/06 06:37:56;;;;;;;16.30;14.60;;;10.50;99.90;;;;;;5072809;28;20175;-57
2022/11/06 06:40:22;;;;;;;15.87;14.17;;;9.80;99.90;;;;;;5072878;28;20183;-59
2022/11/06 06:42:47;;;;;;;15.47;13.93;;;9.60;99.90;;;;;;5072611;28;20853;-57
2022/11/06 06:45:13;;;;;;;14.50;13.00;;;9.80;99.90;;;;;;5072412;28;20170;-54
2022/11/06 06:47:39;;;;;;;14.93;13.43;;;9.90;99.90;;;;;;5072366;28;20174;-57
2022/11/06 06:50:05;;;;;;;17.23;15.53;;;10.00;99.90;;;;;;5072547;28;20173;-60
2022/11/06 06:52:31;;;;;;;16.33;14.30;;;10.20;99.90;;;;;;5072613;28;20174;-57
2022/11/06 06:54:56;;;;;;;16.27;14.60;;;10.30;99.90;;;;;;5072123;28;20178;-58
2022/11/06 06:57:23;;;;;;;15.33;13.77;;;10.40;99.90;;;;;;5072249;28;20258;-53
2022/11/06 06:59:49;;;;;;;15.23;13.63;;;10.70;99.90;;;;;;5072205;28;20221;-59
2022/11/06 07:02:14;;;;;;;15.63;14.03;;;10.60;99.90;;;;;;5072069;28;20201;-57
2022/11/06 07:04:40;;;;;;;15.23;13.70;;;10.80;99.90;;;;;;5071696;28;20167;-58
2022/11/06 07:07:05;;;;;;;15.67;14.07;;;10.80;99.90;;;;;;5072270;28;20193;-55
2022/11/06 07:09:31;;;;;;;15.20;13.60;;;10.80;99.90;;;;;;5072114;28;20176;-56
2022/11/06 07:11:58;;;;;;;14.83;13.23;;;10.80;99.90;;;;;;5072269;28;20185;-56
2022/11/06 07:14:24;;;;;;;15.47;13.60;;;10.80;99.90;;;;;;5071677;28;20175;-57
2022/11/06 07:16:49;;;;;;;15.30;13.70;;;10.90;99.90;;;;;;5071699;28;20251;-57
2022/11/06 07:19:16;;;;;;;15.50;13.90;;;11.30;99.90;;;;;;5072012;28;20174;-57
2022/11/06 07:21:41;;;;;;;14.23;12.73;;;10.90;99.90;;;;;;5071659;28;20597;-56
2022/11/06 07:24:07;;;;;;;15.67;13.47;;;11.00;99.90;;;;;;5071760;28;20171;-57
2022/11/06 07:26:33;;;;;;;14.37;12.97;;;11.00;99.90;;;;;;5071717;28;20186;-56
2022/11/06 07:28:58;;;;;;;14.00;12.57;;;11.10;99.90;;;;;;5071881;28;20505;-58
2022/11/06 07:31:24;;;;;;;14.03;12.63;;;11.20;99.90;;;;;;5071517;28;20182;-57
2022/11/06 07:33:50;;;;;;;14.40;12.80;;;11.20;99.90;;;;;;5071457;28;20171;-58
2022/11/06 07:36:15;;;;;;;14.07;12.67;;;11.30;99.90;;;;;;5071704;28;20198;-58
2022/11/06 07:38:42;;;;;;;15.20;13.60;;;11.30;99.90;;;;;;5071784;28;20632;-57
2022/11/06 07:41:11;;;;;;;14.03;12.63;;;11.40;99.90;;;;;;5071546;28;20248;-58
2022/11/06 07:43:37;;;;;;;14.77;12.37;;;11.40;99.90;;;;;;5070951;28;20206;-56
2022/11/06 07:46:05;;;;;;;13.83;12.47;;;11.40;99.90;;;;;;5071297;28;20197;-58
2022/11/06 07:48:31;;;;;;;13.93;12.43;;;11.60;99.90;;;;;;5070807;28;20181;-57
2022/11/06 07:50:57;;;;;;;11.80;10.60;;;11.60;99.90;;;;;;5071374;28;20177;-57
2022/11/06 07:53:23;;;;;;;14.47;11.40;;;11.60;99.90;;;;;;5070944;28;20175;-58
2022/11/06 07:55:50;;;;;;;13.40;11.33;;;11.70;99.90;;;;;;5071339;28;20691;-58
2022/11/06 07:58:16;;;;;;;11.83;10.73;;;11.70;99.90;;;;;;5071169;28;20179;-58
2022/11/06 08:00:52;;;;;;;12.07;10.73;;;11.80;99.90;;;;;;5071182;28;20209;-59
2022/11/06 08:03:18;;;;;;;10.50;9.50;;;12.00;99.90;;;;;;5070768;28;20293;-58
2022/11/06 08:05:44;;;;;;;10.23;9.30;;;12.80;99.90;;;;;;5071301;28;20248;-58
2022/11/06 08:08:10;;;;;;;9.10;8.20;;;14.20;99.90;;;;;;5071141;28;20178;-58
2022/11/06 08:10:39;;;;;;;9.20;8.30;;;16.60;99.90;;;;;;5071184;28;20175;-59
2022/11/06 08:13:06;;;;;;;8.53;7.83;;;18.90;99.90;;;;;;5070955;28;20251;-56
2022/11/06 08:15:32;;;;;;;7.72;7.03;;;21.10;99.90;;;;;;5070812;28;20336;-59
2022/11/06 08:17:58;;;;;;;8.68;7.90;;;23.00;99.90;;;;;;5070351;28;20182;-60
2022/11/06 08:20:24;;;;;;;7.55;6.85;;;24.30;95.70;;;;;;5071064;28;20162;-60
2022/11/06 08:22:50;;;;;;;7.40;6.80;;;24.70;95.50;;;;;;5070949;28;20237;-60
2022/11/06 08:25:15;;;;;;;7.70;6.90;;;25.20;93.50;;;;;;5070800;28;20782;-58
2022/11/06 08:27:41;;;;;;;6.72;6.22;;;25.90;92.10;;;;;;5071015;28;20258;-58
2022/11/06 08:30:07;;;;;;;6.22;5.72;;;27.00;90.40;;;;;;5070574;28;20178;-59
2022/11/06 08:32:33;;;;;;;6.60;6.07;;;28.20;87.70;;;;;;5069797;28;20228;-60
2022/11/06 08:34:58;;;;;;;5.82;5.32;;;29.60;82.40;;;;;;5070461;28;20201;-59
2022/11/06 08:37:24;;;;;;;7.20;6.60;;;31.10;77.20;;;;;;5070636;28;20218;-59
2022/11/06 08:39:49;;;;;;;5.38;4.97;;;32.20;69.20;;;;;;5070711;28;20183;-59
2022/11/06 08:42:15;;;;;;;6.78;6.18;;;32.30;67.50;;;;;;5052804;28;20310;-57
2022/11/06 08:44:41;;;;;;;5.82;5.35;;;33.00;62.40;;;;;;5070182;28;20167;-59
2022/11/06 08:47:07;;;;;;;5.65;5.20;;;33.70;61.40;;;;;;5070302;28;20214;-56
2022/11/06 08:49:33;;;;;;;4.55;4.25;;;34.30;58.30;;;;;;5070654;28;20167;-55
2022/11/06 08:51:58;;;;;;;5.75;5.18;;;34.90;56.80;;;;;;5070261;28;20675;-56
2022/11/06 08:54:24;;;;;;;5.63;5.18;;;35.40;54.80;;;;;;5071222;28;20166;-56
2022/11/06 08:56:50;;;;;;;4.60;4.30;;;35.30;53.40;;;;;;5039939;28;20208;-54
2022/11/06 08:59:15;;;;;;;5.22;4.82;;;36.20;52.40;;;;;;5074397;28;20207;-57
2022/11/06 09:01:41;;;;;;;6.40;5.90;;;37.10;49.50;;;;;;5074010;28;20312;-55
2022/11/06 09:04:06;;;;;;;4.82;4.53;;;37.70;46.10;;;;;;5074367;28;20288;-58
2022/11/06 09:06:32;;;;;;;4.55;4.25;;;38.40;45.90;;;;;;5074137;28;20189;-58
2022/11/06 09:08:58;;;;;;;5.15;4.75;;;39.20;44.00;;;;;;5074406;28;20164;-58
2022/11/06 09:11:24;;;;;;;5.30;4.90;;;39.30;41.30;;;;;;5074151;28;20181;-57
2022/11/06 09:13:49;;;;;;;5.75;5.35;;;37.20;41.80;;;;;;5073729;28;20559;-58
2022/11/06 09:16:15;;;;;;;5.18;4.78;;;35.10;42.90;;;;;;5073913;28;20198;-57
2022/11/06 09:18:41;;;;;;;4.78;4.40;;;33.50;45.40;;;;;;5074191;28;20178;-57
2022/11/06 09:21:07;;;;;;;3.80;3.50;;;33.50;46.60;;;;;;5074247;28;20185;-57
2022/11/06 09:23:33;;;;;;;2.90;2.70;;;34.90;45.40;;;;;;5073613;28;20517;-57
2022/11/06 09:25:59;;;;;;;3.50;3.30;;;37.20;43.80;;;;;;5074145;28;20190;-59
2022/11/06 09:28:24;;;;;;;3.50;3.30;;;39.40;39.80;;;;;;5073913;28;20227;-58
2022/11/06 09:30:50;;;;;;;3.42;3.22;;;40.70;37.70;;;;;;5073615;28;20244;-57
2022/11/06 09:33:15;;;;;;;4.18;3.88;;;39.40;37.40;;;;;;5073336;28;20544;-57
2022/11/06 09:35:41;;;;;;;4.00;3.70;;;37.60;38.60;;;;;;5073866;28;20190;-56
2022/11/06 09:38:10;;;;;;;5.78;5.38;;;35.50;39.50;;;;;;5073659;28;20525;-57
2022/11/06 09:40:40;;;;;;;5.68;5.18;;;32.30;41.80;;;;;;5074025;28;20163;-57
2022/11/06 09:43:18;;;;;;;5.03;4.70;;;29.00;45.30;;;;;;5073359;28;20166;-54
2022/11/06 09:45:47;;;;;;;5.50;5.05;;;26.30;49.50;;;;;;5073500;28;20210;-57
2022/11/06 09:48:20;;;;;;;5.88;5.38;;;23.70;54.40;;;;;;5072939;28;20194;-55
2022/11/06 09:50:58;;;;;;;5.97;5.47;;;22.60;56.90;;;;;;5073865;28;20174;-57
2022/11/06 09:53:34;;;;;;;6.00;5.50;;;21.80;59.50;;;;;;5073345;28;20679;-57
2022/11/06 09:56:02;;;;;;;7.78;7.07;;;21.50;62.90;;;;;;5073616;28;20351;-56
2022/11/06 09:58:42;;;;;;;6.38;5.78;;;20.80;64.30;;;;;;5073654;28;20317;-54
2022/11/06 10:01:37;;;;;;;6.30;5.80;;;20.50;67.20;;;;;;5073249;28;20248;-55
2022/11/06 10:04:04;;;;;;;6.53;6.00;;;20.20;69.70;;;;;;5072441;28;20683;-56
2022/11/06 10:06:31;;;;;;;5.60;5.20;;;19.90;71.00;;;;;;5073107;28;20198;-57
2022/11/06 10:09:01;;;;;;;6.47;5.97;;;20.10;74.80;;;;;;5073502;28;20266;-58
2022/11/06 10:11:49;;;;;;;8.07;7.37;;;20.20;72.10;;;;;;5073249;28;20213;-57
2022/11/06 10:14:20;;;;;;;7.00;6.40;;;19.70;74.30;;;;;;5072825;28;20178;-54
2022/11/06 10:16:58;;;;;;;7.60;6.90;;;19.50;77.20;;;;;;5072725;28;20247;-54
2022/11/06 10:19:44;;;;;;;6.77;6.17;;;19.30;79.90;;;;;;5073067;28;20175;-54
2022/11/06 10:22:09;;;;;;;5.97;5.47;;;18.90;80.70;;;;;;5072949;28;20200;-54
2022/11/06 10:24:45;;;;;;;6.87;6.27;;;18.70;83.50;;;;;;5072572;28;20544;-55
2022/11/06 10:27:26;;;;;;;6.60;6.00;;;18.40;85.90;;;;;;5072659;28;20241;-56
2022/11/06 10:30:12;;;;;;;6.33;5.80;;;18.10;88.70;;;;;;5072975;28;20167;-54
2022/11/06 10:33:05;;;;;;;9.23;8.43;;;17.50;90.80;;;;;;5072457;28;20228;-54
2022/11/06 10:35:46;;;;;;;6.53;6.00;;;17.80;91.80;;;;;;5072813;28;20198;-53
2022/11/06 10:38:20;;;;;;;7.20;6.60;;;18.40;91.40;;;;;;5072684;28;20166;-54
2022/11/06 10:40:48;;;;;;;6.80;6.30;;;20.70;91.30;;;;;;5072762;28;20211;-56
2022/11/06 10:43:31;;;;;;;6.30;5.80;;;18.90;90.20;;;;;;5072084;28;20217;-55
2022/11/06 10:46:21;;;;;;;6.60;6.00;;;18.70;89.80;;;;;;5072538;28;20599;-55
2022/11/06 10:48:52;;;;;;;8.00;7.30;;;18.40;90.20;;;;;;5072532;28;20229;-52
2022/11/06 10:51:40;;;;;;;6.60;6.10;;;18.20;91.30;;;;;;5072560;28;20806;-54
2022/11/06 10:54:40;;;;;;;6.47;5.97;;;18.30;91.20;;;;;;5072065;28;20226;-56
2022/11/06 10:57:27;;;;;;;6.90;6.30;;;18.30;91.10;;;;;;5086717;22;20230;-53
2022/11/06 10:59:53;;;;;;;6.80;6.20;;;18.10;91.80;;;;;;5071515;28;20221;-57
2022/11/06 11:02:35;;;;;;;6.47;5.97;;;18.30;92.00;;;;;;5070878;28;20179;-56
2022/11/06 11:05:01;;;;;;;6.40;5.90;;;18.90;92.20;;;;;;5070970;28;20174;-57
2022/11/06 11:07:33;;;;;;;6.63;6.03;;;20.30;90.90;;;;;;5088442;28;20551;-58
2022/11/06 11:10:01;;;;;;;6.00;5.38;;;22.20;85.90;;;;;;5091389;28;20722;-58
2022/11/06 11:12:29;;;;;;;5.20;4.80;;;23.30;80.00;;;;;;5091412;28;20738;-58
2022/11/06 11:15:17;;;;;;;5.68;5.18;;;23.90;76.20;;;;;;5088970;28;20188;-58
2022/11/06 11:18:15;;;;;;;4.60;4.20;;;25.00;75.50;;;;;;5089695;28;20196;-58
2022/11/06 11:20:46;;;;;;;4.30;4.00;;;28.00;68.20;;;;;;5090064;28;20659;-57
2022/11/06 11:23:25;;;;;;;4.43;4.05;;;29.50;59.10;;;;;;5089639;28;20174;-59
2022/11/06 11:25:52;;;;;;;4.28;3.97;;;29.20;57.60;;;;;;5090058;28;20192;-60
2022/11/06 11:28:34;;;;;;;9.98;7.70;;;28.40;58.20;;;;;;5091237;28;20174;-59
2022/11/06 11:31:12;;;;;;;4.82;4.43;;;27.70;57.10;;;;;;5090337;28;20639;-56
2022/11/06 11:33:49;;;;;;;4.40;4.10;;;26.40;59.20;;;;;;5090201;28;20224;-56
2022/11/06 11:36:15;;;;;;;4.55;4.25;;;25.30;60.50;;;;;;5090440;28;20216;-58
2022/11/06 11:38:42;;;;;;;4.05;3.75;;;24.20;63.40;;;;;;5091144;28;20229;-59
2022/11/06 11:41:10;;;;;;;4.95;4.55;;;24.80;63.70;;;;;;5090898;28;20174;-59
2022/11/06 11:43:36;;;;;;;4.50;4.20;;;25.40;61.60;;;;;;5090746;28;20178;-58
2022/11/06 11:46:17;;;;;;;4.57;4.28;;;25.30;60.80;;;;;;5090730;28;20250;-57
2022/11/06 11:48:47;;;;;;;5.22;4.82;;;24.60;60.60;;;;;;5090948;28;20264;-59
2022/11/06 11:51:23;;;;;;;4.78;4.20;;;23.50;63.10;;;;;;5089893;28;20178;-57
2022/11/06 11:53:49;;;;;;;4.22;3.90;;;24.00;63.90;;;;;;5090566;28;20194;-59
2022/11/06 11:56:20;;;;;;;3.95;3.65;;;25.70;61.30;;;;;;5053665;28;1055612;-60
2022/11/06 11:58:51;;;;;;;4.60;4.20;;;27.60;58.70;;;;;;5091739;28;20165;-60
2022/11/06 12:01:18;;;;;;;3.75;3.55;;;29.10;56.30;;;;;;5091206;28;20162;-60
2022/11/06 12:03:48;;;;;;;4.07;3.78;;;29.60;53.50;;;;;;5090460;28;20674;-58
2022/11/06 12:06:16;;;;;;;4.18;3.88;;;29.80;52.40;;;;;;5091491;28;20297;-59
2022/11/06 12:08:49;;;;;;;3.65;3.42;;;30.00;52.10;;;;;;5091435;28;20166;-57
2022/11/06 12:11:19;;;;;;;4.18;3.88;;;29.00;52.80;;;;;;5091561;28;20295;-58
2022/11/06 12:14:15;;;;;;;4.00;3.70;;;27.30;54.80;;;;;;5090849;28;20349;-59
2022/11/06 12:16:42;;;;;;;3.85;3.60;;;27.30;55.80;;;;;;5091213;28;20190;-60
2022/11/06 12:19:08;;;;;;;3.30;3.10;;;27.70;55.40;;;;;;5091188;28;20174;-58
2022/11/06 12:21:38;;;;;;;3.40;3.20;;;28.10;54.70;;;;;;5091321;28;20177;-59
2022/11/06 12:24:06;;;;;;;4.22;3.80;;;27.80;53.90;;;;;;5090801;28;20198;-60
2022/11/06 12:26:32;;;;;;;4.15;3.85;;;26.30;55.20;;;;;;5091094;28;20194;-60
2022/11/06 12:29:06;;;;;;;4.03;3.72;;;24.80;58.30;;;;;;5090210;28;20172;-60
2022/11/06 12:31:55;;;;;;;5.63;5.13;;;24.30;59.70;;;;;;5090609;28;20665;-59
2022/11/06 12:34:44;;;;;;;4.47;4.18;;;23.20;61.00;;;;;;5090305;28;20177;-59
2022/11/06 12:37:36;;;;;;;4.10;3.80;;;22.60;63.60;;;;;;5091335;28;20556;-60
2022/11/06 12:40:15;;;;;;;3.85;3.63;;;23.20;63.10;;;;;;5090941;28;20214;-60
2022/11/06 12:42:51;;;;;;;3.72;3.33;;;23.70;61.90;;;;;;5090754;28;20609;-60
2022/11/06 12:45:17;;;;;;;3.20;3.00;;;23.90;61.10;;;;;;5090499;28;20254;-60
2022/11/06 12:48:01;;;;;;;3.10;2.90;;;24.10;60.90;;;;;;5090460;28;20268;-60
2022/11/06 12:51:00;;;;;;;3.45;3.22;;;24.30;58.60;;;;;;5090904;28;20174;-60
2022/11/06 12:53:33;;;;;;;3.42;3.20;;;24.10;59.00;;;;;;5082498;28;20339;-60
2022/11/06 12:56:26;;;;;;;4.32;3.03;;;23.80;58.50;;;;;;5090702;28;20275;-52
2022/11/06 12:59:13;;;;;;;3.05;2.85;;;23.50;59.80;;;;;;5091226;28;20277;-56
2022/11/06 13:02:14;;;;;;;3.10;2.90;;;22.70;59.90;;;;;;5090297;28;20748;-53
2022/11/06 13:04:50;;;;;;;3.08;2.88;;;22.60;60.20;;;;;;4988538;28;20532;-56
2022/11/06 13:07:21;;;;;;;3.33;3.10;;;22.00;62.20;;;;;;4989184;28;20192;-53
2022/11/06 13:10:09;;;;;;;3.30;3.00;;;21.90;61.60;;;;;;4989019;28;20675;-51